Time;durP1;ratioP1;P1;durP2;ratioP2;P2;SDS_P1;SDS_P2;PMS_P1;PMS_P2;Temp;Humidity;BMP_temperature;BMP_pressure;BME280_temperature;BME280_humidity;BME280_pressure;Samples;Min_cycle;Max_cycle;Signal;HPM_P1;HPM_P2
2022/12/22 03:27:36;;;;;;;23.90;9.00;;;;;;;-1.48;93.05;94843.66;5014853;28;20278;-82
2022/12/22 03:30:02;;;;;;;68.20;31.63;;;;;;;-1.50;92.64;94837.78;5025538;28;20209;-81
2022/12/22 03:32:31;;;;;;;10.00;6.35;;;;;;;-1.40;92.28;94838.97;5026232;28;20768;-82
2022/12/22 03:34:57;;;;;;;22.13;10.68;;;;;;;-1.62;91.89;94839.75;5026053;28;20213;-82
2022/12/22 03:37:24;;;;;;;18.80;8.68;;;;;;;-1.69;92.95;94847.13;5016225;28;20295;-82
2022/12/22 03:39:51;;;;;;;11.60;6.28;;;;;;;-1.62;92.73;94837.09;5025525;28;20952;-82
2022/12/22 03:47:47;;;;;;;13.45;7.65;;;;;;;-1.58;93.39;94848.84;5021305;28;20211;-82
2022/12/22 03:50:14;;;;;;;18.85;7.57;;;;;;;-1.55;92.83;94845.72;5031819;28;20201;-81
2022/12/22 03:52:41;;;;;;;22.13;7.80;;;;;;;-1.48;93.02;94848.97;5032060;28;20832;-83
2022/12/22 03:55:08;;;;;;;17.10;8.85;;;;;;;-1.55;94.06;94856.34;5022989;28;20246;-81
2022/12/22 03:57:35;;;;;;;7.95;5.63;;;;;;;-1.44;93.81;94847.44;5029465;28;20214;-82
2022/12/22 04:00:01;;;;;;;13.30;6.93;;;;;;;-1.47;93.08;94847.94;5032220;28;20204;-82
2022/12/22 04:02:28;;;;;;;10.77;6.35;;;;;;;-1.65;92.36;94842.94;5031811;28;20658;-82
2022/12/22 04:04:56;;;;;;;19.40;8.45;;;;;;;-1.68;91.76;94842.63;5018343;28;20205;-83
2022/12/22 04:07:23;;;;;;;14.00;7.28;;;;;;;-1.80;92.31;94843.53;5026226;28;20197;-82
2022/12/22 04:15:14;;;;;;;13.50;6.45;;;;;;;-1.81;93.68;94843.78;5025985;28;20200;-82
2022/12/22 04:17:41;;;;;;;22.17;7.80;;;;;;;-1.81;93.17;94838.47;5032239;28;20211;-82
2022/12/22 04:20:10;;;;;;;12.82;6.40;;;;;;;-1.70;92.63;94842.84;5019010;28;20266;-81
2022/12/22 04:22:37;;;;;;;10.93;7.60;;;;;;;-1.79;91.93;94836.38;5021940;28;20209;-82
2022/12/22 04:25:04;;;;;;;13.75;6.15;;;;;;;-1.74;93.30;94825.81;5018876;28;20204;-83
2022/12/22 04:27:31;;;;;;;13.27;6.63;;;;;;;-1.67;93.90;94823.78;5017989;28;20249;-80
2022/12/22 04:29:58;;;;;;;9.57;6.18;;;;;;;-1.70;93.40;94834.88;5035288;28;20200;-83
2022/12/22 04:32:25;;;;;;;12.02;5.70;;;;;;;-1.73;93.38;94829.25;5023124;28;20762;-82
2022/12/22 04:34:51;;;;;;;12.40;6.93;;;;;;;-1.58;93.81;94832.13;5028105;28;20212;-81
2022/12/22 04:37:19;;;;;;;7.13;4.55;;;;;;;-1.51;93.36;94828.25;5023375;28;20231;-80
2022/12/22 04:39:46;;;;;;;12.65;7.28;;;;;;;-1.61;93.04;94836.06;5026529;28;20275;-81
2022/12/22 04:42:13;;;;;;;11.80;5.82;;;;;;;-1.47;92.57;94831.19;5041288;28;20211;-82
2022/12/22 04:44:40;;;;;;;10.68;5.90;;;;;;;-1.56;91.33;94836.13;5048222;28;20204;-81
2022/12/22 04:47:08;;;;;;;11.63;4.38;;;;;;;-1.61;90.76;94844.03;5031160;28;20197;-81
2022/12/22 04:49:35;;;;;;;11.38;5.90;;;;;;;-1.68;91.10;94842.63;5031924;28;20200;-81
2022/12/22 04:52:02;;;;;;;11.80;4.85;;;;;;;-1.77;91.65;94844.88;5031409;28;20239;-81
2022/12/22 04:54:30;;;;;;;12.77;5.30;;;;;;;-1.82;92.22;94836.84;5024108;28;20259;-81
2022/12/22 04:56:57;;;;;;;8.95;5.30;;;;;;;-1.81;91.53;94846.44;5021183;28;20272;-82
2022/12/22 04:59:24;;;;;;;9.63;4.95;;;;;;;-1.83;91.57;94840.56;5019403;28;20204;-82
2022/12/22 05:01:50;;;;;;;6.03;4.05;;;;;;;-1.69;92.24;94827.72;5017900;28;20612;-81
2022/12/22 05:04:17;;;;;;;7.50;4.78;;;;;;;-1.84;92.49;94829.13;5023699;28;20217;-82
2022/12/22 05:06:44;;;;;;;7.82;3.85;;;;;;;-1.78;91.98;94827.38;5024474;28;20675;-82
2022/12/22 05:09:11;;;;;;;11.00;3.83;;;;;;;-1.86;91.17;94841.03;5022278;28;20236;-81
2022/12/22 05:11:39;;;;;;;16.70;7.75;;;;;;;-1.97;92.27;94834.00;5025204;28;20293;-83
2022/12/22 05:14:06;;;;;;;16.70;8.13;;;;;;;-1.94;92.77;94836.16;5021344;28;20762;-81
2022/12/22 05:16:33;;;;;;;18.38;8.68;;;;;;;-1.86;93.03;94836.53;5026875;28;20205;-85
2022/12/22 05:18:59;;;;;;;17.25;8.00;;;;;;;-1.80;93.07;94845.38;5022388;28;20201;-82
2022/12/22 05:21:26;;;;;;;22.55;6.72;;;;;;;-1.86;93.52;94847.16;5013820;28;20255;-82
2022/12/22 05:23:53;;;;;;;12.02;6.00;;;;;;;-1.83;92.68;94851.19;5030922;28;20201;-82
2022/12/22 05:26:20;;;;;;;12.32;8.75;;;;;;;-1.92;93.27;94842.03;5025270;28;20202;-82
2022/12/22 05:28:48;;;;;;;25.52;8.63;;;;;;;-1.97;93.29;94855.22;5020021;28;20208;-82
2022/12/22 05:31:17;;;;;;;14.25;7.95;;;;;;;-1.88;93.32;94853.75;5014920;28;20235;-83
2022/12/22 05:33:44;;;;;;;21.45;7.28;;;;;;;-2.04;94.35;94855.38;5020685;28;20227;-83
2022/12/22 05:36:11;;;;;;;19.23;7.50;;;;;;;-1.73;94.12;94850.50;5018721;28;20684;-83
2022/12/22 05:38:38;;;;;;;9.85;6.15;;;;;;;-1.57;93.20;94845.16;5029961;28;20303;-83
2022/12/22 05:41:06;;;;;;;7.78;5.07;;;;;;;-1.61;91.18;94841.38;5017566;28;20238;-82
2022/12/22 05:43:33;;;;;;;8.50;5.18;;;;;;;-1.77;91.28;94850.19;5031037;28;20205;-82
2022/12/22 05:46:03;;;;;;;10.98;6.47;;;;;;;-1.70;90.89;94840.19;5022815;28;20279;-83
2022/12/22 05:48:30;;;;;;;7.13;4.53;;;;;;;-1.83;90.68;94845.88;5029579;28;20235;-82
2022/12/22 05:50:57;;;;;;;4.43;3.83;;;;;;;-1.91;90.39;94843.63;5030317;28;20246;-82
2022/12/22 05:53:24;;;;;;;10.63;5.93;;;;;;;-1.91;91.48;94843.63;5030880;28;20250;-82
2022/12/22 05:55:51;;;;;;;11.85;6.57;;;;;;;-2.08;92.38;94842.88;5027016;28;20200;-82
2022/12/22 05:58:18;;;;;;;15.27;6.43;;;;;;;-2.01;93.15;94843.47;5030213;28;20188;-82
2022/12/22 06:00:45;;;;;;;18.83;7.43;;;;;;;-1.91;93.16;94849.72;5017392;28;20212;-82
2022/12/22 06:03:13;;;;;;;14.38;6.22;;;;;;;-1.80;92.53;94862.13;5017462;28;20671;-84
2022/12/22 06:05:40;;;;;;;23.63;7.03;;;;;;;-1.92;92.38;94852.66;5019396;28;20195;-82
2022/12/22 06:08:07;;;;;;;10.75;5.80;;;;;;;-1.80;92.73;94851.50;5028291;28;20462;-84
2022/12/22 06:10:34;;;;;;;19.88;8.65;;;;;;;-1.73;92.58;94851.31;5016828;28;20282;-83
2022/12/22 06:13:01;;;;;;;10.55;6.32;;;;;;;-1.42;91.77;94841.06;5031227;28;20702;-82
2022/12/22 06:15:30;;;;;;;12.32;7.85;;;;;;;-1.07;90.06;94833.50;5012529;28;20254;-82
2022/12/22 06:17:57;;;;;;;18.88;9.00;;;;;;;-0.78;89.94;94832.19;5026896;28;20204;-83
2022/12/22 06:20:25;;;;;;;27.00;8.85;;;;;;;-0.46;88.20;94828.75;5030885;28;20208;-83
2022/12/22 06:22:52;;;;;;;18.88;7.47;;;;;;;-0.29;87.40;94837.41;5029232;28;20262;-82
2022/12/22 06:25:18;;;;;;;15.27;7.80;;;;;;;0.02;86.62;94834.97;5014705;28;20213;-83
2022/12/22 06:27:46;;;;;;;11.80;5.28;;;;;;;-0.10;86.15;94835.94;5014945;28;20208;-82
2022/12/22 06:30:14;;;;;;;13.65;8.10;;;;;;;-0.09;84.83;94842.88;5014488;28;20209;-82
2022/12/22 06:32:40;;;;;;;30.65;13.70;;;;;;;-0.29;84.69;94840.09;5015778;28;20248;-83
2022/12/22 06:35:08;;;;;;;18.42;7.20;;;;;;;-0.38;85.29;94841.59;5028658;28;20196;-84
2022/12/22 06:37:36;;;;;;;8.57;6.03;;;;;;;-0.51;86.59;94852.66;5029257;28;20281;-82
2022/12/22 06:40:04;;;;;;;16.92;7.10;;;;;;;-0.69;87.06;94855.69;5034209;28;20207;-82
2022/12/22 06:45:16;;;;;;;20.45;9.02;;;;;;;-0.50;87.13;94854.25;5023478;28;20197;-82
2022/12/22 06:47:42;;;;;;;11.48;5.45;;;;;;;-0.48;87.38;94857.47;5032718;28;20204;-81
2022/12/22 06:50:10;;;;;;;17.42;7.10;;;;;;;-0.45;87.18;94856.97;5021801;28;20331;-82
2022/12/22 06:52:38;;;;;;;14.13;8.18;;;;;;;-0.21;86.93;94852.91;5014037;28;20306;-82
2022/12/22 06:55:05;;;;;;;15.40;8.25;;;;;;;-0.03;86.03;94859.72;5024829;28;20814;-82
2022/12/22 06:57:32;;;;;;;20.52;9.88;;;;;;;0.03;85.48;94860.53;5021183;28;20228;-82
2022/12/22 06:59:59;;;;;;;23.58;11.40;;;;;;;0.20;85.19;94854.00;5014334;28;20662;-82
2022/12/22 07:02:26;;;;;;;20.38;9.13;;;;;;;0.38;84.65;94852.78;5033210;28;20254;-82
2022/12/22 07:04:52;;;;;;;20.10;9.82;;;;;;;0.33;84.67;94845.53;5033551;28;20204;-80
2022/12/22 07:07:19;;;;;;;28.17;12.20;;;;;;;0.46;84.37;94846.94;5030887;28;20251;-82
2022/12/22 07:09:47;;;;;;;24.63;11.45;;;;;;;0.55;84.28;94849.91;5021883;28;20829;-82
2022/12/22 07:12:14;;;;;;;20.33;10.25;;;;;;;0.28;85.70;94856.16;5020683;28;20231;-81
2022/12/22 07:14:41;;;;;;;23.17;9.60;;;;;;;0.28;86.71;94861.50;5021285;28;20209;-81
2022/12/22 07:17:08;;;;;;;20.08;10.68;;;;;;;0.08;86.72;94871.22;5031104;28;20197;-81
2022/12/22 07:19:35;;;;;;;18.60;10.15;;;;;;;0.16;87.11;94857.41;5033930;28;20634;-82
2022/12/22 07:22:11;;;;;;;16.85;7.70;;;;;;;0.48;87.04;94863.47;5026584;28;20511;-81
2022/12/22 07:24:38;;;;;;;30.10;11.27;;;;;;;0.51;86.38;94865.63;5026498;28;20600;-82
2022/12/22 07:27:10;;;;;;;24.40;11.75;;;;;;;0.75;85.79;94859.88;5017075;28;20190;-82
2022/12/22 07:29:37;;;;;;;22.27;9.82;;;;;;;0.87;84.21;94852.44;5026749;28;20189;-82
2022/12/22 07:32:05;;;;;;;22.25;8.52;;;;;;;0.82;84.43;94857.78;5023383;28;20250;-81
2022/12/22 07:34:31;;;;;;;28.40;9.93;;;;;;;0.83;84.59;94851.34;5020363;28;20247;-81
2022/12/22 07:36:58;;;;;;;23.00;11.98;;;;;;;0.74;84.68;94858.25;5029871;28;20225;-82
2022/12/22 07:39:25;;;;;;;18.75;8.93;;;;;;;0.56;84.00;94854.97;5015416;28;20267;-80
2022/12/22 07:44:38;;;;;;;18.88;8.05;;;;;;;0.61;84.00;94857.69;5019505;28;20204;-82
2022/12/22 07:47:05;;;;;;;18.23;7.50;;;;;;;0.68;83.00;94850.22;5031116;28;20192;-80
2022/12/22 07:52:16;;;;;;;17.25;9.45;;;;;;;0.77;84.62;94855.09;5031886;28;20689;-81
2022/12/22 07:54:43;;;;;;;19.80;7.30;;;;;;;1.06;84.75;94856.25;5023253;28;20207;-80
2022/12/22 07:57:10;;;;;;;19.02;8.50;;;;;;;1.17;83.89;94857.88;5027616;28;20215;-81
2022/12/22 07:59:38;;;;;;;28.58;8.95;;;;;;;1.41;82.22;94850.19;5032336;28;20204;-80
2022/12/22 08:02:04;;;;;;;21.20;9.27;;;;;;;1.66;81.97;94850.22;5029046;28;20243;-80
2022/12/22 08:04:32;;;;;;;20.33;7.60;;;;;;;1.83;80.90;94847.28;5022287;28;20227;-81
2022/12/22 08:06:59;;;;;;;18.65;7.50;;;;;;;1.75;80.25;94842.50;5029238;28;20197;-81
2022/12/22 08:09:27;;;;;;;17.45;7.22;;;;;;;1.86;79.22;94838.75;5022084;28;20326;-81
2022/12/22 08:11:54;;;;;;;16.08;7.15;;;;;;;1.88;78.64;94843.81;5025312;28;20259;-80
2022/12/22 08:14:21;;;;;;;13.77;7.72;;;;;;;2.08;77.50;94844.59;5021456;28;20201;-79
2022/12/22 08:16:49;;;;;;;21.00;8.55;;;;;;;2.11;77.59;94843.25;5026252;28;20587;-79
2022/12/22 08:19:16;;;;;;;10.60;4.70;;;;;;;1.91;77.76;94841.44;5021588;28;20224;-77
2022/12/22 08:21:42;;;;;;;17.45;7.82;;;;;;;2.22;77.40;94838.69;5015411;28;20262;-78
2022/12/22 08:24:09;;;;;;;29.60;9.77;;;;;;;2.28;75.20;94837.63;5021809;28;20673;-79
2022/12/22 08:26:41;;;;;;;12.70;6.45;;;;;;;2.26;74.87;94837.09;5025785;28;20254;-77
2022/12/22 08:29:12;;;;;;;17.20;8.05;;;;;;;2.49;73.71;94836.50;5032130;28;20219;-78
2022/12/22 08:31:40;;;;;;;10.85;5.15;;;;;;;3.33;89.92;94827.59;5026609;28;20572;-80
2022/12/22 08:34:12;;;;;;;25.23;8.85;;;;;;;4.25;94.59;94831.16;5023761;28;20287;-79
2022/12/22 08:36:44;;;;;;;30.70;15.40;;;;;;;3.88;84.91;94826.38;5017639;28;20834;-79
2022/12/22 08:39:11;;;;;;;41.50;10.93;;;;;;;3.50;87.60;94819.97;5031455;28;20208;-80
2022/12/22 08:41:50;;;;;;;15.75;8.48;;;;;;;2.65;75.00;94840.75;5018345;28;20209;-80
2022/12/22 08:44:19;;;;;;;17.02;9.65;;;;;;;2.27;74.61;94833.34;5029448;28;20189;-80
2022/12/22 08:46:46;;;;;;;10.05;6.55;;;;;;;2.46;75.73;94837.06;5022354;28;20246;-81
2022/12/22 08:49:15;;;;;;;17.40;9.38;;;;;;;3.50;81.99;94821.84;5028458;28;20212;-78
2022/12/22 08:51:42;;;;;;;28.08;10.82;;;;;;;3.19;74.33;94818.56;5030233;28;20274;-78
2022/12/22 08:54:09;;;;;;;15.55;8.70;;;;;;;3.05;72.74;94822.91;5026972;28;20237;-78
2022/12/22 08:56:36;;;;;;;22.00;9.85;;;;;;;3.09;73.28;94808.72;5023793;28;20205;-77
2022/12/22 08:59:06;;;;;;;25.95;10.75;;;;;;;3.34;74.13;94809.66;5023530;28;20603;-79
2022/12/22 09:01:34;;;;;;;20.92;8.40;;;;;;;3.47;72.31;94809.81;5024868;28;20193;-79
2022/12/22 09:04:01;;;;;;;22.17;12.35;;;;;;;3.55;71.53;94808.44;5025573;28;20205;-79
2022/12/22 09:06:29;;;;;;;17.25;9.18;;;;;;;3.39;71.17;94799.72;5021990;28;20193;-79
2022/12/22 09:08:57;;;;;;;18.27;8.63;;;;;;;3.28;71.09;94795.47;5024926;28;20267;-78
2022/12/22 09:11:25;;;;;;;15.48;7.47;;;;;;;3.54;70.74;94794.25;5022914;28;20215;-78
2022/12/22 09:13:53;;;;;;;21.67;10.20;;;;;;;3.80;68.89;94786.00;5023955;28;20282;-78
2022/12/22 09:16:21;;;;;;;22.10;10.00;;;;;;;3.84;69.06;94787.03;5022753;28;20602;-79
2022/12/22 09:18:48;;;;;;;40.80;16.75;;;;;;;3.76;68.04;94775.06;5020030;28;20201;-78
2022/12/22 09:21:15;;;;;;;21.17;10.13;;;;;;;3.98;69.45;94779.94;5017212;28;20275;-79
2022/12/22 09:23:43;;;;;;;22.05;10.27;;;;;;;4.15;68.89;94777.63;5029931;28;20545;-80
2022/12/22 09:26:11;;;;;;;19.80;9.60;;;;;;;4.19;67.88;94776.00;5018943;28;20205;-79
2022/12/22 09:28:39;;;;;;;21.00;10.23;;;;;;;4.10;67.91;94775.00;5030155;28;20617;-77
2022/12/22 09:31:06;;;;;;;26.27;11.43;;;;;;;4.13;67.88;94768.28;5030865;28;20204;-79
2022/12/22 09:33:35;;;;;;;20.45;9.98;;;;;;;4.26;67.20;94771.09;5030644;28;20232;-78
2022/12/22 09:36:06;;;;;;;30.63;12.38;;;;;;;4.13;66.98;94769.06;5016228;28;20217;-80
2022/12/22 09:38:33;;;;;;;22.75;11.35;;;;;;;4.11;69.17;94773.13;5029744;28;20255;-79
2022/12/22 09:41:07;;;;;;;20.15;9.13;;;;;;;4.16;68.11;94773.06;5030962;28;20204;-81
2022/12/22 09:43:35;;;;;;;26.23;11.52;;;;;;;4.16;68.01;94762.34;5020337;28;20200;-77
2022/12/22 09:46:03;;;;;;;29.27;12.18;;;;;;;4.08;67.68;94777.19;5015442;28;20205;-78
2022/12/22 09:48:37;;;;;;;25.73;12.60;;;;;;;4.18;67.72;94761.00;5022516;28;20555;-80
2022/12/22 09:51:04;;;;;;;28.05;11.27;;;;;;;4.21;67.31;94765.78;5030249;28;20203;-79
2022/12/22 09:53:32;;;;;;;18.40;9.77;;;;;;;4.35;68.86;94754.38;5029799;28;20685;-80
2022/12/22 09:55:59;;;;;;;18.08;8.05;;;;;;;4.36;66.88;94761.34;5023787;28;20220;-79
2022/12/22 09:58:33;;;;;;;28.83;12.07;;;;;;;4.25;67.63;94744.56;5036865;28;20741;-80
2022/12/22 10:01:09;;;;;;;28.33;11.13;;;;;;;4.58;68.57;94745.53;5017772;28;20257;-82
2022/12/22 10:03:44;;;;;;;21.45;9.93;;;;;;;4.93;67.85;94739.69;5027528;28;20281;-82
2022/12/22 10:06:17;;;;;;;25.30;10.50;;;;;;;5.11;66.66;94734.63;5020391;28;20195;-82
2022/12/22 10:08:44;;;;;;;21.70;10.18;;;;;;;5.12;65.00;94731.66;5016401;28;20231;-82
2022/12/22 10:11:14;;;;;;;36.63;9.70;;;;;;;4.97;64.48;94718.44;5030195;28;20247;-81
2022/12/22 10:13:42;;;;;;;33.40;13.38;;;;;;;5.06;65.74;94719.38;5016431;28;20219;-82
2022/12/22 10:16:21;;;;;;;61.25;26.67;;;;;;;5.28;64.85;94708.06;5017555;28;20703;-82
2022/12/22 10:18:57;;;;;;;22.48;10.30;;;;;;;5.28;64.13;94708.06;5017715;28;20686;-83
2022/12/22 10:21:25;;;;;;;22.83;11.93;;;;;;;5.15;64.71;94711.50;5024181;28;20327;-80
2022/12/22 10:23:52;;;;;;;22.13;11.82;;;;;;;5.13;64.48;94694.88;5021526;28;20216;-82
2022/12/22 10:26:22;;;;;;;22.90;12.48;;;;;;;5.17;64.33;94709.31;5011910;28;20279;-81
2022/12/22 10:28:55;;;;;;;23.67;10.57;;;;;;;5.13;64.65;94694.88;5020589;28;20235;-81
2022/12/22 10:31:24;;;;;;;24.80;13.23;;;;;;;5.19;64.53;94693.72;5023250;28;20197;-83
2022/12/22 10:33:53;;;;;;;22.98;11.48;;;;;;;5.26;64.11;94694.13;5020932;28;20318;-82
2022/12/22 10:36:24;;;;;;;18.00;10.38;;;;;;;5.33;64.45;94689.19;5016881;28;20219;-81
2022/12/22 10:39:01;;;;;;;20.95;11.38;;;;;;;5.33;64.07;94686.47;5021001;28;20300;-83
2022/12/22 10:41:31;;;;;;;21.80;9.27;;;;;;;5.55;63.58;94689.38;5020193;28;20280;-83
2022/12/22 10:44:01;;;;;;;26.02;10.70;;;;;;;5.42;63.67;94678.56;5032062;28;20234;-83
2022/12/22 10:46:38;;;;;;;36.30;13.93;;;;;;;5.48;64.43;94670.13;5018970;28;20200;-81
2022/12/22 10:49:18;;;;;;;41.40;16.90;;;;;;;5.71;62.93;94671.91;5017126;28;20208;-82
2022/12/22 10:51:47;;;;;;;26.42;13.00;;;;;;;5.88;62.43;94673.19;5030157;28;20196;-82
2022/12/22 10:54:31;;;;;;;37.55;13.50;;;;;;;5.80;63.70;94676.56;5030251;28;20302;-82
2022/12/22 10:57:06;;;;;;;32.53;13.07;;;;;;;5.96;62.98;94667.19;5037194;28;20908;-82
2022/12/22 10:59:47;;;;;;;37.85;14.65;;;;;;;6.17;62.87;94656.81;5031047;28;20192;-82
2022/12/22 11:02:25;;;;;;;28.88;11.20;;;;;;;6.43;61.40;94647.94;5017774;28;20211;-83
2022/12/22 11:04:54;;;;;;;26.98;13.45;;;;;;;6.54;60.18;94642.38;5018209;28;20280;-82
2022/12/22 11:07:21;;;;;;;23.88;11.27;;;;;;;6.38;60.51;94656.13;5018419;28;20236;-82
2022/12/22 11:09:53;;;;;;;26.77;14.45;;;;;;;6.50;61.78;94646.75;5030759;28;20578;-81
2022/12/22 11:12:28;;;;;;;22.83;12.55;;;;;;;6.36;60.71;94636.00;5018693;28;20205;-82
2022/12/22 11:15:07;;;;;;;31.05;12.90;;;;;;;6.34;59.96;94640.88;5019004;28;20239;-83
2022/12/22 11:17:44;;;;;;;22.67;11.18;;;;;;;6.24;60.48;94639.22;5023385;28;20834;-82
2022/12/22 11:20:30;;;;;;;19.92;9.95;;;;;;;6.19;60.66;94638.50;5027664;28;20201;-82
2022/12/22 11:23:02;;;;;;;15.68;8.25;;;;;;;6.34;60.79;94632.81;5026870;28;20235;-81
2022/12/22 11:25:39;;;;;;;25.55;12.77;;;;;;;6.32;60.44;94625.03;5022892;28;20192;-81
2022/12/22 11:28:36;;;;;;;23.35;11.68;;;;;;;6.52;59.71;94623.03;5020496;28;20188;-83
2022/12/22 11:31:17;;;;;;;33.92;12.43;;;;;;;6.52;60.07;94623.81;5019823;28;20656;-83
2022/12/22 11:33:58;;;;;;;23.67;12.48;;;;;;;6.60;60.39;94623.09;5024001;28;20267;-83
2022/12/22 11:36:36;;;;;;;31.65;14.38;;;;;;;6.70;59.38;94619.38;5026422;28;20641;-82
2022/12/22 11:39:08;;;;;;;35.05;14.73;;;;;;;6.72;58.79;94614.50;5014271;28;20189;-82
2022/12/22 11:41:48;;;;;;;27.58;12.18;;;;;;;6.75;58.91;94616.59;5022198;28;20192;-82
2022/12/22 11:44:30;;;;;;;23.65;12.35;;;;;;;6.84;58.24;94614.75;5033597;28;20725;-82
2022/12/22 11:47:04;;;;;;;28.50;12.50;;;;;;;6.76;58.66;94613.59;5031280;28;20270;-82
2022/12/22 11:49:46;;;;;;;38.15;13.13;;;;;;;6.91;60.79;94606.28;5030306;28;20199;-83
2022/12/22 11:52:34;;;;;;;20.15;11.25;;;;;;;7.16;57.89;94615.66;5030855;28;20247;-83
2022/12/22 11:55:23;;;;;;;54.75;26.52;;;;;;;7.30;58.08;94605.59;5029828;28;20238;-83
2022/12/22 11:58:02;;;;;;;52.72;25.65;;;;;;;7.34;57.70;94607.38;5028502;28;20675;-81
2022/12/22 12:00:35;;;;;;;26.23;12.00;;;;;;;7.32;57.77;94603.41;5019852;28;20239;-82
2022/12/22 12:03:49;;;;;;;33.38;15.48;;;;;;;7.30;57.46;94602.91;5023825;28;20585;-81
2022/12/22 12:07:00;;;;;;;63.70;28.25;;;;;;;7.41;57.50;94601.56;5007908;28;20274;-82
2022/12/22 12:09:43;;;;;;;34.17;16.30;;;;;;;7.35;56.92;94592.03;4969246;28;20947;-83
2022/12/22 12:12:16;;;;;;;36.20;16.67;;;;;;;7.24;57.01;94593.38;4970353;28;20191;-82
2022/12/22 12:14:56;;;;;;;33.33;15.27;;;;;;;7.34;57.18;94591.22;4964432;28;20310;-82
2022/12/22 12:17:33;;;;;;;30.60;16.33;;;;;;;7.62;56.71;94575.69;4965883;28;21008;-82
2022/12/22 12:20:21;;;;;;;62.90;29.45;;;;;;;7.78;55.25;94576.88;4977888;28;20200;-82
2022/12/22 12:23:06;;;;;;;58.22;28.63;;;;;;;7.73;55.69;94581.59;5028093;28;20192;-82
2022/12/22 12:25:40;;;;;;;35.15;16.35;;;;;;;7.73;56.33;94571.59;5019011;28;20188;-81
2022/12/22 12:28:15;;;;;;;33.78;15.68;;;;;;;8.08;55.63;94582.50;5022219;28;20184;-81
2022/12/22 12:30:51;;;;;;;30.52;15.00;;;;;;;8.24;54.42;94570.19;5018561;28;20718;-82
2022/12/22 12:33:24;;;;;;;33.75;15.30;;;;;;;8.30;54.16;94577.03;5022622;28;20719;-82
2022/12/22 12:36:01;;;;;;;33.30;17.50;;;;;;;8.07;55.03;94576.31;5023526;28;20711;-83
2022/12/22 12:38:38;;;;;;;69.97;30.70;;;;;;;7.99;55.06;94570.91;5033438;28;20647;-81
2022/12/22 12:41:15;;;;;;;40.90;18.40;;;;;;;7.94;55.32;94573.72;5028094;28;20188;-82
2022/12/22 12:43:43;;;;;;;37.63;17.27;;;;;;;8.11;54.03;94571.09;5026687;28;20196;-81
2022/12/22 12:49:57;;;;;;;55.53;30.15;;;;;;;8.36;53.65;94565.00;5024136;28;20200;-82
2022/12/22 12:52:57;;;;;;;37.25;19.33;;;;;;;8.40;55.53;94563.25;5023119;28;20197;-83
2022/12/22 12:55:30;;;;;;;41.35;21.67;;;;;;;8.37;55.37;94561.19;5024274;28;20225;-82
2022/12/22 12:58:00;;;;;;;31.15;16.30;;;;;;;8.45;54.03;94565.81;5024182;28;20399;-84
2022/12/22 13:00:47;;;;;;;47.13;18.15;;;;;;;8.54;56.19;94558.53;5023604;28;20205;-84
2022/12/22 13:03:37;;;;;;;35.17;16.38;;;;;;;8.49;54.74;94566.75;5025105;28;20205;-82
2022/12/22 13:06:08;;;;;;;35.58;18.38;;;;;;;8.27;55.56;94553.38;5030916;28;20303;-83
2022/12/22 13:09:17;;;;;;;40.38;17.95;;;;;;;8.34;55.45;94559.13;5023948;28;20189;-81
2022/12/22 13:11:45;;;;;;;49.33;18.92;;;;;;;8.30;56.82;94547.34;5027242;28;20267;-83
2022/12/22 13:14:51;;;;;;;37.65;19.00;;;;;;;8.18;56.10;94549.88;5029140;28;20726;-85
2022/12/22 13:17:40;;;;;;;30.30;14.32;;;;;;;8.26;57.66;94557.19;5026377;28;20208;-83
2022/12/22 13:20:14;;;;;;;29.65;14.65;;;;;;;8.12;56.10;94551.09;5019480;28;20221;-82
2022/12/22 13:22:43;;;;;;;43.38;20.35;;;;;;;8.00;56.15;94561.72;5022116;28;20211;-81
2022/12/22 13:25:15;;;;;;;33.25;15.20;;;;;;;7.93;55.65;94553.25;5019056;28;20193;-83
2022/12/22 13:27:44;;;;;;;37.10;16.08;;;;;;;7.85;56.04;94547.53;5022980;28;20201;-82
2022/12/22 13:30:14;;;;;;;25.65;12.43;;;;;;;7.80;56.05;94550.38;5023489;28;20205;-83
2022/12/22 13:32:41;;;;;;;22.90;9.88;;;;;;;7.74;55.73;94551.63;5024986;28;20197;-82
2022/12/22 13:35:17;;;;;;;51.75;27.15;;;;;;;7.73;56.25;94546.53;5023184;28;20285;-81
2022/12/22 13:37:49;;;;;;;47.65;26.77;;;;;;;7.81;55.60;94554.66;5029412;28;20274;-83
2022/12/22 13:40:19;;;;;;;27.58;14.88;;;;;;;7.62;56.24;94527.16;5031588;28;20196;-82
2022/12/22 13:42:49;;;;;;;30.73;11.80;;;;;;;7.70;56.99;94550.66;5029102;28;20234;-83
2022/12/22 13:45:29;;;;;;;32.67;14.32;;;;;;;7.54;57.69;94546.78;5021353;28;20201;-83
2022/12/22 13:47:59;;;;;;;26.73;13.15;;;;;;;7.54;57.88;94551.38;5023894;28;20267;-82
2022/12/22 13:50:30;;;;;;;45.72;17.10;;;;;;;7.37;58.53;94541.31;5024541;28;20626;-82
2022/12/22 13:52:58;;;;;;;28.75;14.00;;;;;;;7.36;58.76;94545.13;5030757;28;20633;-82
2022/12/22 13:55:27;;;;;;;32.15;14.88;;;;;;;7.22;59.17;94536.31;5017178;28;20236;-83
2022/12/22 13:57:59;;;;;;;60.35;28.90;;;;;;;7.19;59.65;94551.19;5038096;28;20204;-81
2022/12/22 14:00:28;;;;;;;26.25;14.93;;;;;;;7.00;60.33;94543.28;5031054;28;20614;-83
2022/12/22 14:02:57;;;;;;;34.50;12.60;;;;;;;6.87;61.37;94533.38;5021980;28;20201;-81
2022/12/22 14:05:31;;;;;;;36.03;15.20;;;;;;;6.86;61.95;94545.25;5025582;28;20243;-82
2022/12/22 14:07:59;;;;;;;29.45;14.20;;;;;;;6.85;61.77;94550.94;5012817;28;20197;-82
2022/12/22 14:10:32;;;;;;;38.30;13.63;;;;;;;6.80;62.13;94541.13;5029504;28;20324;-81
2022/12/22 14:13:04;;;;;;;37.35;14.05;;;;;;;6.71;61.91;94543.72;5018737;28;20196;-82
2022/12/22 14:15:31;;;;;;;45.15;17.10;;;;;;;6.58;63.10;94541.06;5019070;28;20767;-83
2022/12/22 14:17:58;;;;;;;43.08;18.42;;;;;;;6.55;63.03;94541.72;5030725;28;20208;-82
2022/12/22 14:20:29;;;;;;;30.17;13.70;;;;;;;6.42;63.52;94541.41;5018312;28;20204;-82
2022/12/22 14:22:59;;;;;;;29.90;13.35;;;;;;;6.28;64.02;94538.00;5029841;28;20195;-83
2022/12/22 14:25:30;;;;;;;36.63;13.40;;;;;;;6.21;64.60;94537.59;5020653;28;20196;-83
2022/12/22 14:27:58;;;;;;;28.58;13.98;;;;;;;6.09;64.55;94539.22;5031163;28;20204;-82
2022/12/22 14:30:32;;;;;;;36.90;13.93;;;;;;;6.00;65.12;94539.94;5022402;28;20201;-82
2022/12/22 14:33:15;;;;;;;37.17;15.05;;;;;;;5.90;65.60;94542.00;5025780;28;20197;-82
2022/12/22 14:35:42;;;;;;;44.88;16.98;;;;;;;5.83;65.59;94533.53;5025927;28;20250;-84
2022/12/22 14:38:22;;;;;;;37.10;13.68;;;;;;;5.75;66.34;94534.22;5025013;28;21036;-82
2022/12/22 14:40:50;;;;;;;34.58;13.15;;;;;;;5.61;66.58;94545.78;5027401;28;20196;-82
2022/12/22 14:43:27;;;;;;;26.42;12.30;;;;;;;5.56;67.13;94537.03;5022811;28;20200;-83
2022/12/22 14:46:03;;;;;;;45.25;14.80;;;;;;;5.46;67.69;94537.22;5020222;28;20287;-83
2022/12/22 14:48:35;;;;;;;27.73;14.05;;;;;;;5.36;68.55;94543.56;5019116;28;20203;-85
2022/12/22 14:51:03;;;;;;;33.10;13.52;;;;;;;5.36;69.09;94543.56;5034116;28;20707;-83
2022/12/22 14:53:40;;;;;;;24.58;12.75;;;;;;;5.36;69.70;94548.94;5034336;28;20569;-82
2022/12/22 14:56:12;;;;;;;20.92;11.43;;;;;;;5.22;70.26;94551.59;5024568;28;20270;-82
2022/12/22 14:58:44;;;;;;;42.83;11.45;;;;;;;5.03;72.64;94560.81;5039637;28;20197;-82
2022/12/22 15:01:19;;;;;;;25.65;11.88;;;;;;;4.80;73.63;94551.78;5025858;28;20197;-83
2022/12/22 15:03:58;;;;;;;57.60;26.70;;;;;;;4.58;74.61;94555.06;5027773;28;20284;-83
2022/12/22 15:06:37;;;;;;;48.28;17.20;;;;;;;4.51;75.67;94560.03;5026362;28;20556;-82
2022/12/22 15:09:26;;;;;;;29.92;11.57;;;;;;;4.33;74.28;94564.28;5024848;28;20673;-84
2022/12/22 15:12:01;;;;;;;22.17;12.10;;;;;;;4.21;74.65;94562.06;5036369;28;20275;-83
2022/12/22 15:14:33;;;;;;;22.73;11.38;;;;;;;4.13;74.21;94564.56;5026198;28;20213;-83
2022/12/22 15:17:02;;;;;;;17.90;9.65;;;;;;;4.01;74.85;94562.31;5021969;28;20196;-83
2022/12/22 15:19:31;;;;;;;16.65;9.25;;;;;;;3.91;74.65;94562.44;5036653;28;20262;-82
2022/12/22 15:21:58;;;;;;;28.23;8.95;;;;;;;3.79;75.18;94559.38;5031684;28;20201;-84
2022/12/22 15:24:26;;;;;;;23.30;8.27;;;;;;;3.76;76.96;94549.22;5028178;28;20212;-81
2022/12/22 15:26:53;;;;;;;15.35;7.38;;;;;;;3.70;78.30;94561.06;5020971;28;20205;-83
2022/12/22 15:29:19;;;;;;;21.05;8.68;;;;;;;3.68;77.88;94568.63;5033950;28;20204;-82
2022/12/22 15:31:46;;;;;;;21.77;9.32;;;;;;;3.61;77.48;94568.16;5021771;28;20250;-82
2022/12/22 15:34:22;;;;;;;26.17;11.15;;;;;;;3.46;78.36;94567.25;5019722;28;20283;-82